createdAt,value
2022-07-27T00:01:50.645Z,98354.94
2022-07-27T00:04:18.681Z,98358.56
2022-07-27T00:06:45.574Z,98349.91
2022-07-27T00:09:12.664Z,98356.78
2022-07-27T00:11:39.654Z,98353.25
2022-07-27T00:14:06.273Z,98348.09
2022-07-27T00:16:33.079Z,98350.91
2022-07-27T00:19:00.131Z,98352.59
2022-07-27T00:21:26.874Z,98337.75
2022-07-27T00:23:54.632Z,98342.09
2022-07-27T00:26:21.526Z,98338.72
2022-07-27T00:28:49.432Z,98332.69
2022-07-27T00:31:16.715Z,98349.38
2022-07-27T00:33:43.440Z,98355.66
2022-07-27T00:36:10.571Z,98353.97
2022-07-27T00:38:37.238Z,98365.50
2022-07-27T00:41:04.307Z,98349.63
2022-07-27T00:43:31.057Z,98336.91
2022-07-27T00:45:57.649Z,98360.28
2022-07-27T00:48:24.389Z,98355.97
2022-07-27T00:50:53.244Z,98350.66
2022-07-27T00:53:19.994Z,98343.66
2022-07-27T00:55:47.262Z,98341.09
2022-07-27T00:58:14.348Z,98342.22
2022-07-27T01:00:40.929Z,98350.09
2022-07-27T01:03:08.970Z,98358.06
2022-07-27T01:05:43.386Z,98344.47
2022-07-27T01:08:12.811Z,98351.91
2022-07-27T01:10:40.351Z,98360.03
2022-07-27T01:13:07.076Z,98353.19
2022-07-27T01:17:58.835Z,98365.63
2022-07-27T01:20:25.522Z,98357.94
2022-07-27T01:22:52.045Z,98367.47
2022-07-27T01:25:18.764Z,98369.28
2022-07-27T01:27:45.338Z,98371.09
2022-07-27T01:30:27.742Z,98372.06
2022-07-27T01:33:02.067Z,98358.06
2022-07-27T01:35:29.645Z,98366.88
2022-07-27T01:37:56.729Z,98358.06
2022-07-27T01:40:23.595Z,98348.38
2022-07-27T01:42:50.390Z,98342.78
2022-07-27T01:45:17.372Z,98348.53
2022-07-27T01:47:44.021Z,98357.50
2022-07-27T01:50:11.485Z,98354.84
2022-07-27T01:52:39.255Z,98350.50
2022-07-27T01:55:10.112Z,98349.63
2022-07-27T01:57:38.174Z,98353.31
2022-07-27T02:00:08.454Z,98348.97
2022-07-27T02:02:40.002Z,98348.09
2022-07-27T02:05:08.224Z,98341.13
2022-07-27T02:07:34.776Z,98340.56
2022-07-27T02:10:01.414Z,98347.28
2022-07-27T02:12:38.163Z,98353.56
2022-07-27T02:15:14.897Z,98347.53
2022-07-27T02:17:43.889Z,98352.03
2022-07-27T02:20:14.290Z,98345.19
2022-07-27T02:22:41.489Z,98352.19
2022-07-27T02:25:08.886Z,98347.69
2022-07-27T02:27:35.989Z,98337.06
2022-07-27T02:30:04.161Z,98352.19
2022-07-27T02:32:30.979Z,98351.34
2022-07-27T02:34:57.935Z,98354.00
2022-07-27T02:37:25.039Z,98354.00
2022-07-27T02:39:52.966Z,98357.50
2022-07-27T02:42:20.373Z,98367.28
2022-07-27T02:44:46.969Z,98368.97
2022-07-27T02:47:13.643Z,98363.81
2022-07-27T02:49:40.244Z,98379.63
2022-07-27T02:52:07.258Z,98377.94
2022-07-27T02:54:34.916Z,98367.44
2022-07-27T02:57:05.106Z,98355.53
2022-07-27T02:59:31.768Z,98370.09
2022-07-27T03:01:58.460Z,98367.44
2022-07-27T03:04:25.667Z,98368.41
2022-07-27T03:06:52.409Z,98377.25
2022-07-27T03:09:19.004Z,98373.06
2022-07-27T03:11:55.376Z,98374.72
2022-07-27T03:14:21.912Z,98376.56
2022-07-27T03:16:48.789Z,98381.03
2022-07-27T03:19:15.415Z,98377.53
2022-07-27T03:21:42.043Z,98384.69
2022-07-27T03:24:08.608Z,98382.03
2022-07-27T03:26:35.331Z,98377.69
2022-07-27T03:29:02.093Z,98383.00
2022-07-27T03:31:28.823Z,98377.69
2022-07-27T03:33:55.517Z,98377.69
2022-07-27T03:36:22.398Z,98380.34
2022-07-27T03:38:49.055Z,98382.13
2022-07-27T03:41:15.994Z,98386.63
2022-07-27T03:43:42.618Z,98383.16
2022-07-27T03:46:09.373Z,98391.94
2022-07-27T03:48:36.080Z,98390.25
2022-07-27T03:51:02.956Z,98390.25
2022-07-27T03:53:29.621Z,98382.28
2022-07-27T03:55:56.377Z,98393.06
2022-07-27T03:58:23.755Z,98393.91
2022-07-27T04:00:51.089Z,98391.25
2022-07-27T04:03:18.139Z,98389.59
2022-07-27T04:05:45.098Z,98398.41
2022-07-27T04:08:11.616Z,98394.91
2022-07-27T04:10:39.071Z,98391.38
2022-07-27T04:13:06.188Z,98401.06
2022-07-27T04:15:32.907Z,98409.19
2022-07-27T04:17:59.988Z,98395.88
2022-07-27T04:20:26.912Z,98389.72
2022-07-27T04:22:53.755Z,98393.22
2022-07-27T04:25:20.570Z,98391.53
2022-07-27T04:27:47.235Z,98396.00
2022-07-27T04:30:13.990Z,98401.47
2022-07-27T04:32:40.544Z,98404.84
2022-07-27T04:35:07.929Z,98406.66
2022-07-27T04:37:35.108Z,98405.81
2022-07-27T04:40:02.052Z,98403.16
2022-07-27T04:42:29.756Z,98401.31
2022-07-27T04:44:56.496Z,98402.31
2022-07-27T04:47:23.036Z,98404.13
2022-07-27T04:49:49.620Z,98413.78
2022-07-27T04:52:17.179Z,98413.78
2022-07-27T04:54:44.402Z,98420.94
2022-07-27T04:57:10.958Z,98410.31
2022-07-27T04:59:37.664Z,98412.09
2022-07-27T05:02:04.311Z,98415.63
2022-07-27T05:04:30.964Z,98419.25
2022-07-27T05:06:57.787Z,98417.44
2022-07-27T05:09:24.492Z,98417.44
2022-07-27T05:11:51.872Z,98413.09
2022-07-27T05:14:19.932Z,98422.75
2022-07-27T05:16:48.733Z,98416.59
2022-07-27T05:19:15.713Z,98422.91
2022-07-27T05:21:42.581Z,98434.38
2022-07-27T05:24:10.130Z,98426.38
2022-07-27T05:26:37.298Z,98425.81
2022-07-27T05:29:04.514Z,98431.69
2022-07-27T05:31:31.366Z,98427.38
2022-07-27T05:33:58.789Z,98427.38
2022-07-27T05:36:25.919Z,98430.06
2022-07-27T05:38:52.660Z,98436.19
2022-07-27T05:41:26.726Z,98443.34
2022-07-27T05:43:54.573Z,98449.50
2022-07-27T05:46:21.691Z,98446.00
2022-07-27T05:48:48.804Z,98440.69
2022-07-27T05:51:15.444Z,98439.00
2022-07-27T05:53:42.160Z,98438.84
2022-07-27T05:58:30.048Z,98445.16
2022-07-27T06:03:16.869Z,98449.50
2022-07-27T06:05:43.592Z,98452.31
2022-07-27T06:08:10.163Z,98461.09
2022-07-27T06:10:38.040Z,98464.63
2022-07-27T06:13:06.660Z,98458.84
2022-07-27T06:15:37.171Z,98463.78
2022-07-27T06:18:04.075Z,98465.72
2022-07-27T06:20:30.988Z,98472.03
2022-07-27T06:23:07.560Z,98481.81
2022-07-27T06:25:35.885Z,98465.88
2022-07-27T06:28:06.797Z,98465.88
2022-07-27T06:30:34.182Z,98471.19
2022-07-27T06:33:04.455Z,98456.19
2022-07-27T06:35:31.625Z,98458.84
2022-07-27T06:37:58.597Z,98472.31
2022-07-27T06:40:29.455Z,98474.25
2022-07-27T06:42:56.396Z,98470.91
2022-07-27T06:45:22.965Z,98476.34
2022-07-27T06:47:51.097Z,98473.69
2022-07-27T06:50:20.241Z,98476.47
2022-07-27T06:52:49.715Z,98469.75
2022-07-27T06:55:16.379Z,98478.47
2022-07-27T06:57:43.263Z,98472.28
2022-07-27T07:00:10.843Z,98467.50
2022-07-27T07:02:39.653Z,98474.13
2022-07-27T07:05:06.625Z,98468.78
2022-07-27T07:07:34.342Z,98473.00
2022-07-27T07:10:00.894Z,98466.38
2022-07-27T07:12:28.468Z,98477.19
2022-07-27T07:14:55.172Z,98476.22
2022-07-27T07:17:21.762Z,98492.88
2022-07-27T07:19:48.294Z,98494.56
2022-07-27T07:22:15.134Z,98492.75
2022-07-27T07:24:42.057Z,98490.91
2022-07-27T07:27:08.687Z,98489.09
2022-07-27T07:29:36.048Z,98482.94
2022-07-27T07:32:02.657Z,98493.44
2022-07-27T07:34:29.559Z,98491.75
2022-07-27T07:36:56.220Z,98496.25
2022-07-27T07:39:24.674Z,98503.25
2022-07-27T07:41:55.796Z,98498.75
2022-07-27T07:44:22.358Z,98504.06
2022-07-27T07:46:49.075Z,98504.06
2022-07-27T07:49:16.732Z,98508.41
2022-07-27T07:51:44.045Z,98510.09
2022-07-27T07:54:10.828Z,98505.75
2022-07-27T07:56:37.806Z,98516.25
2022-07-27T07:59:05.018Z,98510.94
2022-07-27T08:04:01.284Z,98505.63
2022-07-27T08:06:28.488Z,98509.13
2022-07-27T08:08:55.194Z,98511.78
2022-07-27T08:11:21.790Z,98516.16
2022-07-27T08:13:48.540Z,98511.94
2022-07-27T08:16:15.216Z,98523.16
2022-07-27T08:18:42.306Z,98513.47
2022-07-27T08:21:09.116Z,98522.16
2022-07-27T08:23:35.846Z,98517.53
2022-07-27T08:26:07.565Z,98515.03
2022-07-27T08:28:36.930Z,98507.03
2022-07-27T08:33:33.607Z,98511.41
2022-07-27T08:36:06.706Z,98517.53
2022-07-27T08:38:33.708Z,98514.06
2022-07-27T08:41:02.250Z,98523.56
2022-07-27T08:43:30.810Z,98512.94
2022-07-27T08:45:59.492Z,98516.41
2022-07-27T08:48:28.013Z,98518.09
2022-07-27T08:50:55.526Z,98511.97
2022-07-27T08:53:23.297Z,98517.13
2022-07-27T08:55:50.053Z,98514.47
2022-07-27T08:58:17.294Z,98511.81
2022-07-27T09:00:46.922Z,98519.66
2022-07-27T09:03:19.603Z,98516.03
2022-07-27T09:05:53.728Z,98515.16
2022-07-27T09:08:28.792Z,98513.34
2022-07-27T09:10:59.329Z,98515.16
2022-07-27T09:13:32.185Z,98511.53
2022-07-27T09:16:23.557Z,98520.38
2022-07-27T09:18:59.929Z,98513.22
2022-07-27T09:21:26.907Z,98516.72
2022-07-27T09:24:36.811Z,98505.09
2022-07-27T09:27:04.846Z,98498.09
2022-07-27T09:29:36.098Z,98490.25
2022-07-27T09:32:14.895Z,98484.66
2022-07-27T09:34:41.637Z,98491.66
2022-07-27T09:37:10.090Z,98489.00
2022-07-27T09:39:36.881Z,98490.66
2022-07-27T09:42:03.594Z,98486.19
2022-07-27T09:44:42.165Z,98493.31
2022-07-27T09:47:27.845Z,98489.84
2022-07-27T09:50:18.893Z,98486.19
2022-07-27T09:52:46.784Z,98487.03
2022-07-27T09:55:13.397Z,98487.88
2022-07-27T09:57:57.581Z,98487.88
2022-07-27T10:00:25.697Z,98486.06
2022-07-27T10:02:53.592Z,98484.25
2022-07-27T10:05:24.377Z,98475.25
2022-07-27T10:07:53.949Z,98468.56
2022-07-27T10:10:21.814Z,98476.94
2022-07-27T10:12:54.203Z,98464.06
2022-07-27T10:15:21.832Z,98475.16
2022-07-27T10:17:53.376Z,98468.84
2022-07-27T10:20:20.034Z,98475.81
2022-07-27T10:22:56.550Z,98478.38
2022-07-27T10:25:27.524Z,98476.69
2022-07-27T10:28:10.650Z,98483.69
2022-07-27T10:30:38.019Z,98482.69
2022-07-27T10:33:43.645Z,98480.88
2022-07-27T10:36:19.600Z,98471.78
2022-07-27T10:38:51.284Z,98483.53
2022-07-27T10:41:26.625Z,98494.19
2022-07-27T10:44:17.420Z,98490.41
2022-07-27T10:47:02.608Z,98480.88
2022-07-27T10:49:40.490Z,98487.91
2022-07-27T10:52:41.472Z,98482.44
2022-07-27T10:55:08.940Z,98482.44
2022-07-27T10:57:36.577Z,98481.59
2022-07-27T11:00:12.332Z,98479.75
2022-07-27T11:02:42.991Z,98484.94
2022-07-27T11:05:53.900Z,98484.25
2022-07-27T11:08:36.077Z,98483.13
2022-07-27T11:10:48.416Z,98480.47
2022-07-27T11:13:19.347Z,98473.22
2022-07-27T11:18:56.867Z,98474.06
2022-07-27T11:21:26.760Z,98430.59
2022-07-27T11:24:10.007Z,98456.13
2022-07-27T11:26:40.081Z,98466.75
2022-07-27T11:29:08.809Z,98458.66
2022-07-27T11:31:54.637Z,98458.66
2022-07-27T11:34:34.332Z,98454.31
2022-07-27T11:37:03.137Z,98458.50
2022-07-27T11:39:59.981Z,98451.34
2022-07-27T11:42:23.560Z,98447.72
2022-07-27T11:44:53.412Z,98445.06
2022-07-27T11:47:23.905Z,98444.06
2022-07-27T11:49:50.738Z,98445.75
2022-07-27T11:52:18.555Z,98448.44
2022-07-27T11:54:51.399Z,98443.09
2022-07-27T11:57:18.910Z,98445.63
2022-07-27T11:59:46.703Z,98442.13
2022-07-27T12:02:17.705Z,98442.94
2022-07-27T12:04:49.328Z,98441.97
2022-07-27T12:07:21.802Z,98443.66
2022-07-27T12:09:54.528Z,98435.69
2022-07-27T12:12:22.888Z,98437.38
2022-07-27T12:14:51.142Z,98438.19
2022-07-27T12:17:19.176Z,98439.88
2022-07-27T12:20:04.108Z,98438.91
2022-07-27T12:22:39.703Z,98438.03
2022-07-27T12:25:18.441Z,98438.91
2022-07-27T12:27:58.574Z,98431.75
2022-07-27T12:30:36.354Z,98436.22
2022-07-27T12:33:05.450Z,98437.78
2022-07-27T12:35:50.227Z,98433.28
2022-07-27T12:38:17.183Z,98435.38
2022-07-27T12:40:49.665Z,98433.13
2022-07-27T12:43:18.498Z,98429.47
2022-07-27T12:45:46.071Z,98432.16
2022-07-27T12:48:24.778Z,98423.19
2022-07-27T12:51:01.546Z,98426.69
2022-07-27T12:53:29.676Z,98424.03
2022-07-27T12:55:58.526Z,98425.69
2022-07-27T12:58:25.351Z,98429.22
2022-07-27T13:00:52.067Z,98426.56
2022-07-27T13:03:19.321Z,98426.56
2022-07-27T13:05:46.632Z,98430.91
2022-07-27T13:08:16.730Z,98422.91
2022-07-27T13:10:44.563Z,98421.06
2022-07-27T13:13:11.720Z,98415.75
2022-07-27T13:15:38.527Z,98423.75
2022-07-27T13:18:05.274Z,98425.44
2022-07-27T13:20:34.209Z,98423.59
2022-07-27T13:23:00.888Z,98420.94
2022-07-27T13:25:27.871Z,98422.63
2022-07-27T13:27:55.253Z,98431.47
2022-07-27T13:30:22.069Z,98426.13
2022-07-27T13:32:48.728Z,98422.47
2022-07-27T13:35:17.027Z,98422.47
2022-07-27T13:37:44.393Z,98426.81
2022-07-27T13:40:11.557Z,98421.63
2022-07-27T13:42:38.371Z,98425.97
2022-07-27T13:45:10.444Z,98425.84
2022-07-27T13:47:39.102Z,98414.78
2022-07-27T13:50:06.565Z,98416.47
2022-07-27T13:52:33.153Z,98422.19
2022-07-27T13:54:59.790Z,98416.03
2022-07-27T13:57:26.603Z,98408.16
2022-07-27T13:59:53.518Z,98430.88
2022-07-27T14:02:23.203Z,98434.53
2022-07-27T14:04:53.327Z,98425.69
2022-07-27T14:07:26.231Z,98422.91
2022-07-27T14:10:13.335Z,98422.75
2022-07-27T14:12:39.919Z,98418.41
2022-07-27T14:15:07.261Z,98411.94
2022-07-27T14:17:34.741Z,98404.81
2022-07-27T14:20:01.527Z,98406.47
2022-07-27T14:22:28.292Z,98405.47
2022-07-27T14:24:54.941Z,98399.59
2022-07-27T14:27:21.736Z,98401.84
2022-07-27T14:29:48.549Z,98399.19
2022-07-27T14:32:15.386Z,98400.88
2022-07-27T14:34:44.210Z,98400.03
2022-07-27T14:37:10.925Z,98403.38
2022-07-27T14:39:39.343Z,98403.38
2022-07-27T14:42:06.566Z,98398.91
2022-07-27T14:44:34.964Z,98402.41
2022-07-27T14:47:02.035Z,98397.91
2022-07-27T14:49:29.275Z,98402.25
2022-07-27T14:51:56.026Z,98401.28
2022-07-27T14:54:22.874Z,98396.25
2022-07-27T14:56:49.590Z,98401.41
2022-07-27T14:59:16.756Z,98403.94
2022-07-27T15:01:43.671Z,98399.47
2022-07-27T15:04:10.325Z,98397.63
2022-07-27T15:06:39.230Z,98397.63
2022-07-27T15:09:07.897Z,98394.97
2022-07-27T15:11:34.738Z,98393.97
2022-07-27T15:14:01.527Z,98387.69
2022-07-27T15:16:31.849Z,98395.66
2022-07-27T15:19:00.285Z,98374.94
2022-07-27T15:21:27.438Z,98390.34
2022-07-27T15:23:54.056Z,98387.69
2022-07-27T15:26:20.771Z,98374.22
2022-07-27T15:28:47.395Z,98383.88
2022-07-27T15:31:14.634Z,98375.88
2022-07-27T15:33:41.608Z,98374.22
2022-07-27T15:36:08.343Z,98375.88
2022-07-27T15:38:35.192Z,98381.06
2022-07-27T15:41:01.828Z,98374.06
2022-07-27T15:43:28.529Z,98374.91
2022-07-27T15:45:55.429Z,98358.66
2022-07-27T15:48:23.047Z,98364.84
2022-07-27T15:50:53.495Z,98365.22
2022-07-27T15:53:22.149Z,98363.41
2022-07-27T15:55:49.647Z,98358.94
2022-07-27T15:58:19.440Z,98362.41
2022-07-27T16:00:48.743Z,98369.44
2022-07-27T16:03:16.430Z,98366.75
2022-07-27T16:05:45.155Z,98372.91
2022-07-27T16:08:11.792Z,98374.59
2022-07-27T16:10:39.814Z,98378.25
2022-07-27T16:13:07.976Z,98370.09
2022-07-27T16:15:53.823Z,98368.28
2022-07-27T16:18:20.596Z,98370.97
2022-07-27T16:20:47.188Z,98352.75
2022-07-27T16:23:18.778Z,98367.31
2022-07-27T16:26:07.510Z,98356.50
2022-07-27T16:28:39.184Z,98367.97
2022-07-27T16:31:08.918Z,98354.66
2022-07-27T16:33:36.248Z,98355.53
2022-07-27T16:38:17.605Z,98346.69
2022-07-27T16:40:44.370Z,98353.69
2022-07-27T16:43:10.965Z,98351.88
2022-07-27T16:45:37.607Z,98358.94
2022-07-27T16:48:04.288Z,98349.09
2022-07-27T16:50:31.195Z,98350.78
2022-07-27T16:52:57.811Z,98349.91
2022-07-27T16:55:27.439Z,98356.94
2022-07-27T16:57:54.465Z,98353.28
2022-07-27T17:00:21.392Z,98358.78
2022-07-27T17:02:48.098Z,98362.09
2022-07-27T17:05:14.655Z,98368.28
2022-07-27T17:07:42.813Z,98353.28
2022-07-27T17:10:09.914Z,98362.09
2022-07-27T17:12:38.761Z,98365.63
2022-07-27T17:15:07.170Z,98369.13
2022-07-27T17:17:34.373Z,98364.78
2022-07-27T17:20:01.005Z,98368.28
2022-07-27T17:22:27.811Z,98376.44
2022-07-27T17:24:54.450Z,98368.44
2022-07-27T17:27:21.864Z,98361.44
2022-07-27T17:29:48.552Z,98358.78
2022-07-27T17:32:15.310Z,98363.25
2022-07-27T17:34:41.912Z,98370.25
2022-07-27T17:37:08.866Z,98371.78
2022-07-27T17:39:36.062Z,98369.13
2022-07-27T17:42:04.280Z,98379.78
2022-07-27T17:44:30.969Z,98391.41
2022-07-27T17:46:57.749Z,98392.44
2022-07-27T17:49:24.499Z,98391.41
2022-07-27T17:51:51.292Z,98396.75
2022-07-27T17:54:17.893Z,98397.44
2022-07-27T17:56:44.595Z,98402.78
2022-07-27T17:59:35.844Z,98400.97
2022-07-27T18:01:59.576Z,98406.28
2022-07-27T18:04:29.844Z,98402.78
2022-07-27T18:06:56.589Z,98409.94
2022-07-27T18:09:23.331Z,98397.44
2022-07-27T18:11:50.322Z,98401.94
2022-07-27T18:14:16.906Z,98411.63
2022-07-27T18:16:43.562Z,98413.44
2022-07-27T18:19:10.945Z,98413.44
2022-07-27T18:21:37.865Z,98424.94
2022-07-27T18:24:04.812Z,98422.13
2022-07-27T18:26:31.626Z,98435.13
2022-07-27T18:28:58.151Z,98433.19
2022-07-27T18:31:25.123Z,98435.69
2022-07-27T18:33:54.342Z,98439.06
2022-07-27T18:36:21.409Z,98448.75
2022-07-27T18:38:49.818Z,98449.72
2022-07-27T18:41:18.975Z,98457.72
2022-07-27T18:43:51.462Z,98458.16
2022-07-27T18:46:22.810Z,98466.00
2022-07-27T18:48:50.050Z,98459.13
2022-07-27T18:51:17.102Z,98473.84
2022-07-27T18:53:44.975Z,98473.00
2022-07-27T18:56:12.050Z,98470.34
2022-07-27T18:58:40.482Z,98475.66
2022-07-27T19:01:09.375Z,98469.66
2022-07-27T19:03:37.265Z,98472.19
2022-07-27T19:06:09.333Z,98473.16
2022-07-27T19:08:39.287Z,98475.00
2022-07-27T19:11:05.982Z,98478.63
2022-07-27T19:13:32.598Z,98479.63
2022-07-27T19:16:00.848Z,98474.28
2022-07-27T19:18:27.528Z,98478.75
2022-07-27T19:20:55.499Z,98489.41
2022-07-27T19:23:23.253Z,98482.28
2022-07-27T19:25:50.042Z,98483.00
2022-07-27T19:28:20.419Z,98471.78
2022-07-27T19:30:47.766Z,98474.53
2022-07-27T19:33:14.664Z,98485.91
2022-07-27T19:35:41.434Z,98482.25
2022-07-27T19:38:08.871Z,98484.75
2022-07-27T19:40:45.600Z,98483.38
2022-07-27T19:43:13.876Z,98488.81
2022-07-27T19:45:41.300Z,98498.66
2022-07-27T19:48:08.848Z,98496.81
2022-07-27T19:50:35.495Z,98504.69
2022-07-27T19:53:02.373Z,98510.84
2022-07-27T19:55:31.963Z,98509.03
2022-07-27T19:57:58.882Z,98512.53
2022-07-27T20:00:25.539Z,98524.88
2022-07-27T20:02:52.327Z,98521.34
2022-07-27T20:05:19.120Z,98524.72
2022-07-27T20:07:45.889Z,98527.38
2022-07-27T20:10:12.456Z,98529.22
2022-07-27T20:12:39.254Z,98520.38
2022-07-27T20:15:06.667Z,98523.91
2022-07-27T20:17:36.958Z,98535.22
2022-07-27T20:20:08.090Z,98544.22
2022-07-27T20:22:34.968Z,98544.22
2022-07-27T20:25:02.310Z,98544.22
2022-07-27T20:27:28.997Z,98542.41
2022-07-27T20:29:56.452Z,98550.41
2022-07-27T20:32:23.093Z,98548.56
2022-07-27T20:34:49.764Z,98552.09
2022-07-27T20:37:16.980Z,98547.19
2022-07-27T20:39:43.629Z,98551.38
2022-07-27T20:42:10.934Z,98550.66
2022-07-27T20:44:37.497Z,98554.34
2022-07-27T20:47:04.152Z,98563.31
2022-07-27T20:49:30.801Z,98568.78
2022-07-27T20:51:57.441Z,98567.94
2022-07-27T20:54:29.115Z,98576.09
2022-07-27T20:56:56.887Z,98576.34
2022-07-27T20:59:23.936Z,98575.53
2022-07-27T21:01:50.807Z,98577.50
2022-07-27T21:04:19.077Z,98577.22
2022-07-27T21:06:46.444Z,98570.06
2022-07-27T21:09:15.267Z,98576.94
2022-07-27T21:11:42.857Z,98575.25
2022-07-27T21:14:09.678Z,98576.94
2022-07-27T21:16:37.001Z,98573.44
2022-07-27T21:19:04.106Z,98584.91
2022-07-27T21:21:31.021Z,98579.75
2022-07-27T21:24:17.828Z,98573.59
2022-07-27T21:26:49.620Z,98577.06
2022-07-27T21:29:17.030Z,98578.34
2022-07-27T21:31:46.576Z,98583.38
2022-07-27T21:34:16.128Z,98586.19
2022-07-27T21:36:44.028Z,98580.16
2022-07-27T21:39:10.977Z,98581.84
2022-07-27T21:41:39.216Z,98590.66
2022-07-27T21:44:06.309Z,98596.16
2022-07-27T21:46:32.932Z,98591.69
2022-07-27T21:48:59.666Z,98596.16
2022-07-27T21:51:26.373Z,98596.28
2022-07-27T21:53:53.191Z,98599.78
2022-07-27T21:56:19.750Z,98601.63
2022-07-27T21:58:47.904Z,98599.94
2022-07-27T22:01:17.525Z,98593.78
2022-07-27T22:03:45.366Z,98591.13
2022-07-27T22:06:12.126Z,98604.56
2022-07-27T22:08:38.989Z,98602.75
2022-07-27T22:11:06.070Z,98602.91
2022-07-27T22:13:33.699Z,98612.69
2022-07-27T22:16:00.914Z,98612.69
2022-07-27T22:18:28.797Z,98626.16
2022-07-27T22:20:56.031Z,98627.84
2022-07-27T22:23:23.378Z,98635.00
2022-07-27T22:25:50.239Z,98638.66
2022-07-27T22:28:17.045Z,98632.72
2022-07-27T22:30:43.610Z,98636.09
2022-07-27T22:33:30.266Z,98635.25
2022-07-27T22:35:57.742Z,98644.22
2022-07-27T22:38:24.416Z,98651.38
2022-07-27T22:40:55.342Z,98642.53
2022-07-27T22:43:22.486Z,98642.69
2022-07-27T22:45:49.940Z,98650.66
2022-07-27T22:48:16.629Z,98656.00
2022-07-27T22:50:46.954Z,98644.94
2022-07-27T22:53:17.494Z,98653.47
2022-07-27T22:55:44.295Z,98647.28
2022-07-27T22:58:10.832Z,98651.94
2022-07-27T23:00:37.952Z,98641.84
2022-07-27T23:03:04.475Z,98657.38
2022-07-27T23:05:31.584Z,98655.59
2022-07-27T23:07:58.373Z,98654.72
2022-07-27T23:10:43.149Z,98657.53
2022-07-27T23:13:09.883Z,98654.16
2022-07-27T23:15:37.245Z,98650.50
2022-07-27T23:18:03.928Z,98651.63
2022-07-27T23:20:30.577Z,98654.44
2022-07-27T23:22:57.264Z,98655.28
2022-07-27T23:27:41.540Z,98658.22
2022-07-27T23:30:08.752Z,98660.03
2022-07-27T23:32:36.088Z,98661.88
2022-07-27T23:35:03.172Z,98658.38
2022-07-27T23:37:29.733Z,98653.56
2022-07-27T23:39:56.337Z,98662.00
2022-07-27T23:42:23.037Z,98656.78
2022-07-27T23:44:49.643Z,98657.81
2022-07-27T23:47:17.142Z,98664.09
2022-07-27T23:49:43.768Z,98666.78
2022-07-27T23:52:10.349Z,98664.22
2022-07-27T23:54:36.920Z,98667.03
2022-07-27T23:57:03.597Z,98662.56
2022-07-27T23:59:30.221Z,98665.22
